createdAt,value
2017-06-09T00:02:24.706Z,100394.80
2017-06-09T00:04:51.203Z,100400.80
2017-06-09T00:07:17.526Z,100403.28
2017-06-09T00:09:43.864Z,100399.47
2017-06-09T00:12:10.204Z,100394.13
2017-06-09T00:14:36.561Z,100390.52
2017-06-09T00:17:02.976Z,100399.81
2017-06-09T00:19:29.325Z,100395.41
2017-06-09T00:21:55.700Z,100395.61
2017-06-09T00:24:22.027Z,100393.37
2017-06-09T00:26:48.441Z,100390.04
2017-06-09T00:29:14.776Z,100389.24
2017-06-09T00:31:41.124Z,100377.88
2017-06-09T00:34:07.461Z,100376.33
2017-06-09T00:36:33.770Z,100375.66
2017-06-09T00:39:00.071Z,100386.16
2017-06-09T00:41:26.374Z,100388.65
2017-06-09T00:43:52.678Z,100390.96
2017-06-09T00:46:19.000Z,100390.52
2017-06-09T00:48:45.330Z,100402.45
2017-06-09T00:51:11.663Z,100400.09
2017-06-09T00:53:37.975Z,100399.06
2017-06-09T00:56:04.388Z,100404.02
2017-06-09T00:58:30.690Z,100411.89
2017-06-09T01:00:57.010Z,100411.23
2017-06-09T01:03:23.344Z,100419.48
2017-06-09T01:05:49.688Z,100420.62
2017-06-09T01:08:16.028Z,100419.53
2017-06-09T01:10:42.352Z,100410.00
2017-06-09T01:13:08.694Z,100398.44
2017-06-09T01:15:35.076Z,100394.58
2017-06-09T01:18:01.426Z,100403.59
2017-06-09T01:20:27.759Z,100402.45
2017-06-09T01:22:54.103Z,100395.12
2017-06-09T01:25:20.424Z,100381.64
2017-06-09T01:27:46.746Z,100382.53
2017-06-09T01:30:13.087Z,100385.74
2017-06-09T01:32:39.478Z,100385.72
2017-06-09T01:35:05.822Z,100386.37
2017-06-09T01:37:32.197Z,100367.08
2017-06-09T01:39:58.560Z,100369.50
2017-06-09T01:42:25.006Z,100369.20
2017-06-09T01:44:51.361Z,100374.61
2017-06-09T01:47:17.691Z,100385.05
2017-06-09T01:49:44.076Z,100372.69
2017-06-09T01:52:10.419Z,100374.61
2017-06-09T01:54:36.767Z,100368.45
2017-06-09T01:57:03.156Z,100373.64
2017-06-09T01:59:29.518Z,100368.72
2017-06-09T02:01:55.862Z,100359.33
2017-06-09T02:04:22.233Z,100357.83
2017-06-09T02:06:48.561Z,100361.23
2017-06-09T02:09:14.887Z,100355.86
2017-06-09T02:11:41.297Z,100352.69
2017-06-09T02:14:07.632Z,100347.25
2017-06-09T02:16:33.972Z,100338.97
2017-06-09T02:19:00.350Z,100340.05
2017-06-09T02:21:26.684Z,100333.16
2017-06-09T02:23:52.997Z,100330.03
2017-06-09T02:26:19.329Z,100332.56
2017-06-09T02:28:45.665Z,100333.90
2017-06-09T02:31:12.090Z,100332.75
2017-06-09T02:33:38.486Z,100331.34
2017-06-09T02:36:04.828Z,100332.00
2017-06-09T02:38:31.176Z,100340.02
2017-06-09T02:40:57.481Z,100336.63
2017-06-09T02:43:23.799Z,100337.53
2017-06-09T02:45:50.126Z,100337.84
2017-06-09T02:48:16.522Z,100333.95
2017-06-09T02:50:42.835Z,100331.27
2017-06-09T02:53:09.157Z,100328.74
2017-06-09T02:55:35.525Z,100324.02
2017-06-09T02:58:01.911Z,100321.17
2017-06-09T03:00:28.262Z,100317.26
2017-06-09T03:02:54.625Z,100316.94
2017-06-09T03:05:21.002Z,100314.94
2017-06-09T03:07:47.369Z,100314.72
2017-06-09T03:10:13.728Z,100311.37
2017-06-09T03:12:40.050Z,100304.97
2017-06-09T03:15:06.406Z,100304.88
2017-06-09T03:17:32.781Z,100297.42
2017-06-09T03:19:59.139Z,100295.99
2017-06-09T03:22:25.473Z,100288.47
2017-06-09T03:24:51.813Z,100302.30
2017-06-09T03:27:18.152Z,100297.51
2017-06-09T03:29:44.467Z,100295.73
2017-06-09T03:32:26.668Z,100292.09
2017-06-09T03:34:53.001Z,100295.59
2017-06-09T03:37:19.333Z,100290.08
2017-06-09T03:39:45.720Z,100290.49
2017-06-09T03:42:12.062Z,100286.28
2017-06-09T03:44:38.363Z,100283.95
2017-06-09T03:47:04.689Z,100279.51
2017-06-09T03:49:31.022Z,100275.27
2017-06-09T03:51:57.337Z,100274.41
2017-06-09T03:54:23.655Z,100272.17
2017-06-09T03:56:49.962Z,100262.34
2017-06-09T03:59:16.311Z,100260.80
2017-06-09T04:01:42.650Z,100246.30
2017-06-09T04:04:08.970Z,100240.30
2017-06-09T04:06:35.273Z,100237.86
2017-06-09T04:09:01.606Z,100234.02
2017-06-09T04:11:28.034Z,100233.80
2017-06-09T04:13:54.363Z,100231.48
2017-06-09T04:16:20.786Z,100227.70
2017-06-09T04:18:47.140Z,100228.16
2017-06-09T04:21:13.463Z,100231.30
2017-06-09T04:23:39.816Z,100226.17
2017-06-09T04:26:06.156Z,100229.28
2017-06-09T04:28:32.474Z,100233.05
2017-06-09T04:30:58.822Z,100226.28
2017-06-09T04:33:25.169Z,100232.80
2017-06-09T04:35:51.499Z,100236.52
2017-06-09T04:38:17.854Z,100234.13
2017-06-09T04:40:44.265Z,100227.25
2017-06-09T04:43:10.586Z,100234.13
2017-06-09T04:45:36.940Z,100232.45
2017-06-09T04:48:03.277Z,100234.29
2017-06-09T04:50:29.606Z,100228.39
2017-06-09T04:52:55.914Z,100234.99
2017-06-09T04:55:22.269Z,100235.97
2017-06-09T04:57:48.612Z,100237.34
2017-06-09T05:00:14.929Z,100233.73
2017-06-09T05:02:42.283Z,100233.95
2017-06-09T05:05:08.586Z,100227.84
2017-06-09T05:07:34.903Z,100230.75
2017-06-09T05:10:01.222Z,100226.61
2017-06-09T05:12:27.561Z,100225.12
2017-06-09T05:14:53.905Z,100236.60
2017-06-09T05:17:20.235Z,100241.47
2017-06-09T05:19:46.542Z,100237.17
2017-06-09T05:22:27.742Z,100235.11
2017-06-09T05:24:59.125Z,100226.94
2017-06-09T05:27:25.483Z,100221.61
2017-06-09T05:29:51.882Z,100216.72
2017-06-09T05:32:19.193Z,100213.08
2017-06-09T05:34:45.530Z,100220.75
2017-06-09T05:37:12.524Z,100218.58
2017-06-09T05:39:38.882Z,100218.59
2017-06-09T05:42:05.273Z,100207.19
2017-06-09T05:44:31.606Z,100198.20
2017-06-09T05:46:57.949Z,100194.31
2017-06-09T05:49:24.324Z,100201.55
2017-06-09T05:51:50.695Z,100212.95
2017-06-09T05:54:17.037Z,100219.84
2017-06-09T05:56:43.349Z,100228.62
2017-06-09T05:59:09.650Z,100231.27
2017-06-09T06:01:35.954Z,100239.45
2017-06-09T06:04:02.283Z,100240.55
2017-06-09T06:06:28.637Z,100251.33
2017-06-09T06:08:54.990Z,100254.20
2017-06-09T06:11:22.406Z,100256.19
2017-06-09T06:13:48.725Z,100252.38
2017-06-09T06:16:15.039Z,100244.61
2017-06-09T06:18:41.426Z,100251.04
2017-06-09T06:21:07.838Z,100251.58
2017-06-09T06:23:34.161Z,100249.55
2017-06-09T06:26:00.495Z,100247.61
2017-06-09T06:28:26.840Z,100257.70
2017-06-09T06:30:53.175Z,100252.59
2017-06-09T06:33:19.519Z,100258.50
2017-06-09T06:35:45.847Z,100251.07
2017-06-09T06:38:12.193Z,100248.45
2017-06-09T06:40:38.521Z,100254.07
2017-06-09T06:43:04.887Z,100248.59
2017-06-09T06:45:31.247Z,100246.24
2017-06-09T06:47:57.577Z,100246.91
2017-06-09T06:50:23.915Z,100243.38
2017-06-09T06:52:50.262Z,100228.32
2017-06-09T06:55:16.616Z,100226.06
2017-06-09T06:57:42.942Z,100217.20
2017-06-09T07:00:09.342Z,100222.19
2017-06-09T07:02:35.674Z,100221.09
2017-06-09T07:05:02.006Z,100214.52
2017-06-09T07:07:28.380Z,100212.80
2017-06-09T07:09:54.728Z,100209.99
2017-06-09T07:12:21.097Z,100205.77
2017-06-09T07:14:47.474Z,100193.62
2017-06-09T07:17:13.800Z,100195.26
2017-06-09T07:19:40.128Z,100187.59
2017-06-09T07:22:06.458Z,100193.59
2017-06-09T07:24:32.854Z,100205.08
2017-06-09T07:26:59.195Z,100222.73
2017-06-09T07:29:25.548Z,100243.71
2017-06-09T07:31:51.882Z,100238.20
2017-06-09T07:34:18.226Z,100229.92
2017-06-09T07:36:44.559Z,100226.77
2017-06-09T07:39:10.899Z,100218.88
2017-06-09T07:41:37.225Z,100216.98
2017-06-09T07:44:03.584Z,100215.50
2017-06-09T07:46:29.948Z,100213.24
2017-06-09T07:48:56.305Z,100230.77
2017-06-09T07:51:22.677Z,100233.55
2017-06-09T07:53:49.051Z,100246.07
2017-06-09T07:56:15.394Z,100252.42
2017-06-09T07:58:41.702Z,100258.03
2017-06-09T08:01:08.052Z,100259.67
2017-06-09T08:03:34.394Z,100263.77
2017-06-09T08:06:00.731Z,100272.02
2017-06-09T08:08:27.079Z,100268.78
2017-06-09T08:10:53.496Z,100270.41
2017-06-09T08:13:19.848Z,100275.11
2017-06-09T08:15:51.143Z,100278.18
2017-06-09T08:18:22.202Z,100276.63
2017-06-09T08:20:52.332Z,100275.59
2017-06-09T08:23:23.043Z,100273.46
2017-06-09T08:25:54.209Z,100285.39
2017-06-09T08:44:47.121Z,100273.73
2017-06-09T08:47:13.591Z,100275.42
2017-06-09T08:49:39.947Z,100279.33
2017-06-09T08:52:10.099Z,100287.48
2017-06-09T08:54:41.840Z,100297.35
2017-06-09T08:57:13.848Z,100302.92
2017-06-09T08:59:45.285Z,100309.59
2017-06-09T09:02:16.763Z,100314.52
2017-06-09T09:04:47.978Z,100325.02
2017-06-09T09:07:17.987Z,100334.30
2017-06-09T09:09:47.981Z,100335.05
2017-06-09T09:12:18.646Z,100333.83
2017-06-09T09:14:48.511Z,100346.63
2017-06-09T09:17:18.393Z,100354.21
2017-06-09T09:19:50.304Z,100332.00
2017-06-09T09:22:21.068Z,100364.31
2017-06-09T09:24:51.198Z,100364.28
2017-06-09T09:27:24.621Z,100328.25
2017-06-09T09:29:54.438Z,100304.09
2017-06-09T09:32:25.326Z,100293.84
2017-06-09T09:34:56.688Z,100309.77
2017-06-09T09:37:27.462Z,100324.02
2017-06-09T09:39:59.495Z,100348.20
2017-06-09T09:42:29.383Z,100376.66
2017-06-09T09:44:55.883Z,100368.11
2017-06-09T09:47:22.723Z,100364.77
2017-06-09T09:49:49.220Z,100366.89
2017-06-09T09:52:15.555Z,100367.21
2017-06-09T09:54:41.894Z,100379.74
2017-06-09T09:57:08.878Z,100380.01
2017-06-09T09:59:35.514Z,100393.64
2017-06-09T10:02:01.919Z,100383.81
2017-06-09T10:04:28.237Z,100393.60
2017-06-09T10:06:54.688Z,100397.16
2017-06-09T10:09:21.035Z,100398.89
2017-06-09T10:11:47.365Z,100400.34
2017-06-09T10:14:13.683Z,100409.28
2017-06-09T10:16:40.027Z,100414.92
2017-06-09T10:19:10.336Z,100419.50
2017-06-09T10:21:36.804Z,100430.84
2017-06-09T10:24:03.246Z,100435.88
2017-06-09T10:26:29.843Z,100447.45
2017-06-09T10:28:56.149Z,100441.59
2017-06-09T10:31:22.502Z,100455.43
2017-06-09T10:33:48.852Z,100450.37
2017-06-09T10:36:15.161Z,100439.24
2017-06-09T10:38:41.521Z,100434.33
2017-06-09T10:41:07.859Z,100436.08
2017-06-09T10:43:34.177Z,100440.52
2017-06-09T10:46:00.494Z,100445.93
2017-06-09T10:48:26.950Z,100450.19
2017-06-09T10:50:53.332Z,100473.91
2017-06-09T10:53:19.764Z,100471.28
2017-06-09T10:55:46.083Z,100482.00
2017-06-09T10:58:12.897Z,100489.26
2017-06-09T11:00:39.309Z,100493.52
2017-06-09T11:03:05.651Z,100498.22
2017-06-09T11:05:31.957Z,100495.38
2017-06-09T11:07:58.744Z,100492.95
2017-06-09T11:10:25.511Z,100484.16
2017-06-09T11:12:52.517Z,100474.36
2017-06-09T11:15:19.235Z,100485.82
2017-06-09T11:17:45.658Z,100497.09
2017-06-09T11:20:12.838Z,100492.52
2017-06-09T11:22:39.349Z,100491.45
2017-06-09T11:25:05.699Z,100500.53
2017-06-09T11:27:32.049Z,100493.25
2017-06-09T11:29:58.397Z,100500.23
2017-06-09T11:32:24.801Z,100500.56
2017-06-09T11:34:51.137Z,100496.89
2017-06-09T11:37:17.495Z,100505.06
2017-06-09T11:39:43.891Z,100506.44
2017-06-09T11:42:10.269Z,100500.15
2017-06-09T11:44:36.644Z,100495.00
2017-06-09T11:47:03.004Z,100496.95
2017-06-09T11:49:29.417Z,100492.00
2017-06-09T11:51:55.785Z,100490.06
2017-06-09T11:54:22.162Z,100499.17
2017-06-09T11:56:48.470Z,100501.08
2017-06-09T11:59:14.843Z,100505.24
2017-06-09T12:01:41.273Z,100501.55
2017-06-09T12:04:07.593Z,100507.13
2017-06-09T12:06:33.900Z,100511.00
2017-06-09T12:09:00.240Z,100508.03
2017-06-09T12:11:26.697Z,100505.58
2017-06-09T12:13:53.053Z,100509.51
2017-06-09T12:16:19.382Z,100501.67
2017-06-09T12:18:45.717Z,100520.52
2017-06-09T12:21:12.156Z,100515.11
2017-06-09T12:23:38.478Z,100512.09
2017-06-09T12:26:04.917Z,100515.69
2017-06-09T12:28:31.227Z,100520.02
2017-06-09T12:30:57.617Z,100513.86
2017-06-09T12:33:23.960Z,100505.46
2017-06-09T12:35:50.289Z,100498.75
2017-06-09T12:38:16.602Z,100505.76
2017-06-09T12:40:42.950Z,100514.92
2017-06-09T12:43:09.285Z,100508.89
2017-06-09T12:45:35.620Z,100505.84
2017-06-09T12:48:02.046Z,100514.13
2017-06-09T12:50:28.348Z,100515.25
2017-06-09T12:52:54.684Z,100519.56
2017-06-09T12:55:21.031Z,100526.19
2017-06-09T12:57:47.394Z,100521.95
2017-06-09T13:00:13.721Z,100530.62
2017-06-09T13:02:40.483Z,100529.92
2017-06-09T13:05:06.835Z,100536.64
2017-06-09T13:07:33.201Z,100540.51
2017-06-09T13:09:59.521Z,100545.73
2017-06-09T13:12:25.861Z,100548.94
2017-06-09T13:14:52.180Z,100547.62
2017-06-09T13:17:18.549Z,100542.47
2017-06-09T13:19:44.879Z,100542.69
2017-06-09T13:22:11.221Z,100559.77
2017-06-09T13:24:37.579Z,100551.45
2017-06-09T13:27:03.903Z,100555.75
2017-06-09T13:29:30.229Z,100553.13
2017-06-09T13:31:56.596Z,100558.42
2017-06-09T13:34:22.913Z,100553.44
2017-06-09T13:36:49.221Z,100556.33
2017-06-09T13:39:15.564Z,100556.14
2017-06-09T13:41:41.887Z,100564.46
2017-06-09T13:44:08.224Z,100565.28
2017-06-09T13:46:34.578Z,100564.27
2017-06-09T13:49:00.890Z,100568.25
2017-06-09T13:51:27.220Z,100570.14
2017-06-09T13:53:53.540Z,100566.80
2017-06-09T13:56:19.872Z,100566.65
2017-06-09T13:58:46.186Z,100557.78
2017-06-09T14:01:12.536Z,100560.50
2017-06-09T14:03:38.977Z,100551.12
2017-06-09T14:06:05.298Z,100556.75
2017-06-09T14:08:31.644Z,100547.41
2017-06-09T14:10:57.994Z,100558.39
2017-06-09T14:13:24.340Z,100564.88
2017-06-09T14:15:50.681Z,100566.54
2017-06-09T14:18:17.080Z,100569.69
2017-06-09T14:20:43.433Z,100565.39
2017-06-09T14:23:09.843Z,100564.86
2017-06-09T14:25:36.957Z,100569.67
2017-06-09T14:28:03.919Z,100558.79
2017-06-09T14:30:30.253Z,100539.25
2017-06-09T14:32:56.699Z,100555.98
2017-06-09T14:35:23.048Z,100552.36
2017-06-09T14:37:49.412Z,100555.58
2017-06-09T14:40:15.808Z,100549.88
2017-06-09T14:42:42.129Z,100544.02
2017-06-09T14:45:08.430Z,100539.23
2017-06-09T14:47:34.902Z,100542.89
2017-06-09T14:50:01.255Z,100541.67
2017-06-09T14:52:27.569Z,100545.09
2017-06-09T14:54:53.916Z,100544.12
2017-06-09T14:57:20.326Z,100549.37
2017-06-09T14:59:46.668Z,100546.22
2017-06-09T15:02:13.010Z,100546.71
2017-06-09T15:04:39.343Z,100540.48
2017-06-09T15:07:05.794Z,100543.86
2017-06-09T15:09:32.094Z,100554.33
2017-06-09T15:11:58.434Z,100549.33
2017-06-09T15:14:24.771Z,100557.73
2017-06-09T15:16:51.088Z,100560.84
2017-06-09T15:19:17.426Z,100557.09
2017-06-09T15:21:43.808Z,100566.75
2017-06-09T15:24:10.169Z,100571.49
2017-06-09T15:26:36.529Z,100568.94
2017-06-09T15:29:02.861Z,100572.58
2017-06-09T15:31:29.197Z,100574.33
2017-06-09T15:33:55.545Z,100577.27
2017-06-09T15:36:21.898Z,100580.34
2017-06-09T15:38:48.222Z,100578.20
2017-06-09T15:41:14.550Z,100575.64
2017-06-09T15:43:40.976Z,100585.64
2017-06-09T15:46:07.386Z,100591.20
2017-06-09T15:48:33.722Z,100590.62
2017-06-09T15:51:00.036Z,100590.48
2017-06-09T15:53:26.418Z,100588.69
2017-06-09T15:55:52.731Z,100590.48
2017-06-09T15:58:19.068Z,100599.28
2017-06-09T16:00:45.399Z,100597.38
2017-06-09T16:03:12.465Z,100605.50
2017-06-09T16:05:38.835Z,100604.17
2017-06-09T16:08:05.184Z,100606.25
2017-06-09T16:10:32.581Z,100603.23
2017-06-09T16:12:58.890Z,100607.56
2017-06-09T16:15:25.220Z,100610.77
2017-06-09T16:17:51.565Z,100618.30
2017-06-09T16:20:17.883Z,100621.00
2017-06-09T16:22:44.218Z,100610.59
2017-06-09T16:25:10.527Z,100623.98
2017-06-09T16:27:36.882Z,100621.99
2017-06-09T16:30:03.213Z,100628.09
2017-06-09T16:32:29.534Z,100631.92
2017-06-09T16:34:55.872Z,100631.22
2017-06-09T16:37:22.234Z,100625.34
2017-06-09T16:39:48.561Z,100625.94
2017-06-09T16:42:14.896Z,100633.06
2017-06-09T16:44:41.267Z,100625.95
2017-06-09T16:47:07.633Z,100627.91
2017-06-09T16:49:33.955Z,100625.80
2017-06-09T16:52:00.320Z,100644.38
2017-06-09T16:54:26.646Z,100635.91
2017-06-09T16:56:52.964Z,100636.30
2017-06-09T16:59:19.337Z,100637.23
2017-06-09T17:01:45.658Z,100639.63
2017-06-09T17:04:11.990Z,100641.52
2017-06-09T17:06:38.326Z,100650.63
2017-06-09T17:09:04.658Z,100656.73
2017-06-09T17:11:31.014Z,100655.18
2017-06-09T17:13:57.344Z,100663.48
2017-06-09T17:16:23.723Z,100660.84
2017-06-09T17:18:50.071Z,100658.99
2017-06-09T17:21:16.384Z,100667.55
2017-06-09T17:23:42.743Z,100669.13
2017-06-09T17:26:09.094Z,100667.58
2017-06-09T17:28:35.436Z,100676.00
2017-06-09T17:31:01.808Z,100678.55
2017-06-09T17:33:29.023Z,100673.45
2017-06-09T17:35:55.378Z,100671.67
2017-06-09T17:38:21.713Z,100672.36
2017-06-09T17:40:48.046Z,100672.20
2017-06-09T17:43:14.395Z,100677.74
2017-06-09T17:45:40.735Z,100686.61
2017-06-09T17:48:07.071Z,100686.95
2017-06-09T17:50:33.439Z,100693.70
2017-06-09T17:52:59.818Z,100694.78
2017-06-09T17:55:26.161Z,100699.24
2017-06-09T17:57:52.497Z,100694.70
2017-06-09T18:00:18.804Z,100697.87
2017-06-09T18:02:45.193Z,100702.19
2017-06-09T18:05:12.706Z,100712.17
2017-06-09T18:07:39.072Z,100709.55
2017-06-09T18:10:05.399Z,100713.52
2017-06-09T18:12:31.757Z,100722.02
2017-06-09T18:14:58.110Z,100715.44
2017-06-09T18:17:25.140Z,100714.92
2017-06-09T18:19:51.724Z,100717.17
2017-06-09T18:22:18.074Z,100719.25
2017-06-09T18:24:44.387Z,100730.58
2017-06-09T18:27:10.792Z,100733.59
2017-06-09T18:29:37.101Z,100734.22
2017-06-09T18:32:03.452Z,100733.39
2017-06-09T18:34:29.801Z,100738.16
2017-06-09T18:36:56.131Z,100741.01
2017-06-09T18:39:22.460Z,100740.22
2017-06-09T18:41:48.807Z,100745.61
2017-06-09T18:44:15.157Z,100751.18
2017-06-09T18:46:41.537Z,100745.40
2017-06-09T18:49:07.920Z,100759.31
2017-06-09T18:51:34.266Z,100754.52
2017-06-09T18:54:00.681Z,100754.45
2017-06-09T18:56:27.279Z,100756.75
2017-06-09T18:58:53.626Z,100768.47
2017-06-09T19:01:20.018Z,100774.11
2017-06-09T19:03:46.549Z,100774.44
2017-06-09T19:06:12.905Z,100763.45
2017-06-09T19:08:39.325Z,100751.78
2017-06-09T19:11:05.693Z,100764.55
2017-06-09T19:16:03.541Z,100771.34
2017-06-09T19:18:29.872Z,100783.43
2017-06-09T19:20:56.249Z,100798.34
2017-06-09T19:23:22.666Z,100799.06
2017-06-09T19:25:49.010Z,100778.44
2017-06-09T19:28:15.337Z,100784.80
2017-06-09T19:30:41.686Z,100793.48
2017-06-09T19:33:08.032Z,100794.30
2017-06-09T19:35:34.362Z,100803.09
2017-06-09T19:38:00.725Z,100810.05
2017-06-09T19:40:27.073Z,100805.42
2017-06-09T19:42:53.450Z,100815.53
2017-06-09T19:45:19.978Z,100821.09
2017-06-09T19:47:46.357Z,100821.08
2017-06-09T19:50:13.082Z,100820.91
2017-06-09T19:52:39.457Z,100826.64
2017-06-09T19:55:05.796Z,100828.09
2017-06-09T19:57:32.189Z,100834.78
2017-06-09T19:59:58.523Z,100836.48
2017-06-09T20:05:08.446Z,100849.50
2017-06-09T20:07:34.834Z,100859.75
2017-06-09T20:10:01.170Z,100859.92
2017-06-09T20:12:27.529Z,100866.19
2017-06-09T20:14:53.907Z,100865.81
2017-06-09T20:17:20.230Z,100867.48
2017-06-09T20:19:46.557Z,100871.16
2017-06-09T20:22:13.017Z,100874.27
2017-06-09T20:24:39.667Z,100873.78
2017-06-09T20:27:06.010Z,100883.29
2017-06-09T20:29:32.416Z,100881.45
2017-06-09T20:31:58.781Z,100882.31
2017-06-09T20:34:28.311Z,100884.77
2017-06-09T20:36:56.649Z,100889.72
2017-06-09T20:39:23.186Z,100891.70
2017-06-09T20:41:49.544Z,100894.37
2017-06-09T20:44:15.907Z,100896.20
2017-06-09T20:46:42.737Z,100900.34
2017-06-09T20:49:09.368Z,100905.41
2017-06-09T20:51:36.432Z,100904.45
2017-06-09T20:54:02.821Z,100899.23
2017-06-09T20:56:29.165Z,100899.53
2017-06-09T20:58:55.494Z,100910.68
2017-06-09T21:01:21.802Z,100909.36
2017-06-09T21:03:48.193Z,100908.02
2017-06-09T21:06:14.587Z,100916.28
2017-06-09T21:08:41.002Z,100921.17
2017-06-09T21:11:07.573Z,100925.77
2017-06-09T21:13:34.440Z,100920.75
2017-06-09T21:16:00.914Z,100931.22
2017-06-09T21:18:27.337Z,100937.30
2017-06-09T21:20:53.702Z,100929.17
2017-06-09T21:23:20.040Z,100937.98
2017-06-09T21:25:46.350Z,100936.56
2017-06-09T21:28:12.687Z,100940.08
2017-06-09T21:30:39.053Z,100934.03
2017-06-09T21:33:05.964Z,100941.50
2017-06-09T21:35:32.332Z,100939.27
2017-06-09T21:37:58.675Z,100944.88
2017-06-09T21:40:25.023Z,100954.14
2017-06-09T21:42:51.372Z,100955.17
2017-06-09T21:45:17.713Z,100956.20
2017-06-09T21:47:44.037Z,100956.33
2017-06-09T21:50:10.779Z,100957.09
2017-06-09T21:52:37.099Z,100960.27
2017-06-09T21:55:03.462Z,100969.27
2017-06-09T21:57:29.792Z,100969.70
2017-06-09T21:59:56.193Z,100968.45
2017-06-09T22:02:23.268Z,100973.32
2017-06-09T22:04:49.675Z,100975.48
2017-06-09T22:07:16.030Z,100976.20
2017-06-09T22:09:42.359Z,100989.84
2017-06-09T22:12:08.725Z,100980.27
2017-06-09T22:14:35.128Z,100977.01
2017-06-09T22:17:03.112Z,100978.81
2017-06-09T22:19:36.587Z,100976.77
2017-06-09T22:22:02.928Z,100984.41
2017-06-09T22:24:29.246Z,100977.78
2017-06-09T22:26:55.946Z,100993.55
2017-06-09T22:29:22.279Z,100986.64
2017-06-09T22:31:48.622Z,100988.33
2017-06-09T22:34:14.963Z,100991.36
2017-06-09T22:36:41.353Z,100992.13
2017-06-09T22:39:07.723Z,100989.69
2017-06-09T22:41:34.068Z,100982.87
2017-06-09T22:44:00.424Z,100990.98
2017-06-09T22:46:26.798Z,100995.58
2017-06-09T22:48:53.150Z,100994.41
2017-06-09T22:51:19.536Z,100997.60
2017-06-09T22:53:45.913Z,100997.90
2017-06-09T22:56:12.243Z,101005.00
2017-06-09T22:58:38.581Z,101006.27
2017-06-09T23:01:04.921Z,101009.98
2017-06-09T23:03:31.250Z,101013.48
2017-06-09T23:05:57.574Z,101018.09
2017-06-09T23:08:23.910Z,101009.35
2017-06-09T23:10:50.240Z,101009.00
2017-06-09T23:13:16.575Z,101006.55
2017-06-09T23:15:42.905Z,100999.66
2017-06-09T23:18:09.234Z,100998.08
2017-06-09T23:20:35.616Z,100999.14
2017-06-09T23:23:02.027Z,101003.52
2017-06-09T23:25:34.306Z,100997.89
2017-06-09T23:28:06.540Z,101010.09
2017-06-09T23:30:33.048Z,101011.45
2017-06-09T23:32:59.444Z,101005.20
2017-06-09T23:35:28.769Z,101010.67
2017-06-09T23:37:55.119Z,101014.34
2017-06-09T23:40:21.473Z,101015.52
2017-06-09T23:42:48.738Z,101014.91
2017-06-09T23:45:15.078Z,101026.92
2017-06-09T23:47:42.372Z,101023.56
2017-06-09T23:50:08.864Z,101014.76
2017-06-09T23:52:42.152Z,101023.59
2017-06-09T23:55:09.352Z,101023.19
2017-06-09T23:57:36.148Z,101023.19
